sensor_id;sensor_type;location;lat;lon;timestamp;pressure;altitude;pressure_sealevel;temperature;humidity
84673;BME280;74899;42.256;23.284;2023-12-14T13:53:33;87696.72;;;24.14;29.69
84673;BME280;74899;42.256;23.284;2023-12-14T13:55:59;87701.63;;;24.71;28.94
84673;BME280;74899;42.256;23.284;2023-12-14T13:59:22;87693.25;;;25.42;29.19
84673;BME280;74899;42.256;23.284;2023-12-14T14:01:49;87685.44;;;25.85;28.27
84673;BME280;74899;42.256;23.284;2023-12-14T14:04:18;87681.31;;;26.34;28.76
84673;BME280;74899;42.256;23.284;2023-12-14T14:10:27;87693.63;;;27.12;25.61
84673;BME280;74899;42.256;23.284;2023-12-14T14:12:53;87698.47;;;27.31;24.74
84673;BME280;74899;42.256;23.284;2023-12-14T14:15:21;87688.97;;;27.45;25.41
84673;BME280;74899;42.256;23.284;2023-12-14T14:17:47;87697.97;;;27.62;25.04
84673;BME280;74899;42.256;23.284;2023-12-14T14:20:18;87706.94;;;27.78;26.26
84673;BME280;74899;42.256;23.284;2023-12-14T14:22:44;87707.97;;;27.95;24.92
84673;BME280;74899;42.256;23.284;2023-12-14T14:28:12;87703.44;;;27.99;25.34
84673;BME280;74899;42.256;23.284;2023-12-14T14:30:38;87719.31;;;27.99;25.42
84673;BME280;74899;42.256;23.284;2023-12-14T14:33:05;87711.72;;;28.01;24.97
84673;BME280;74899;42.256;23.284;2023-12-14T14:35:31;87718.53;;;28.02;24.33
84673;BME280;74899;42.256;23.284;2023-12-14T14:37:59;87726.88;;;28.01;24.23
84673;BME280;74899;42.256;23.284;2023-12-14T14:40:26;87742.38;;;28.02;23.90
84673;BME280;74899;42.256;23.284;2023-12-14T14:42:52;87724.97;;;28.01;24.21
84673;BME280;74899;42.256;23.284;2023-12-14T14:45:18;87737.88;;;27.96;24.02
84673;BME280;74899;42.256;23.284;2023-12-14T14:47:44;87742.03;;;27.93;24.27
84673;BME280;74899;42.256;23.284;2023-12-14T14:50:09;87743.56;;;27.94;24.10
84673;BME280;74899;42.256;23.284;2023-12-14T14:52:36;87746.59;;;27.93;24.39
84673;BME280;74899;42.256;23.284;2023-12-14T14:55:02;87739.47;;;27.75;24.09
84673;BME280;74899;42.256;23.284;2023-12-14T14:57:28;87744.38;;;27.80;24.39
84673;BME280;74899;42.256;23.284;2023-12-14T14:59:54;87741.34;;;27.78;24.41
84673;BME280;74899;42.256;23.284;2023-12-14T15:04:52;87756.25;;;22.57;27.32
84673;BME280;74899;42.256;23.284;2023-12-14T15:07:20;87765.09;;;21.14;30.03
84673;BME280;74899;42.256;23.284;2023-12-14T15:09:46;87774.13;;;20.43;31.29
84673;BME280;74899;42.256;23.284;2023-12-14T15:12:12;87763.59;;;19.91;32.53
84673;BME280;74899;42.256;23.284;2023-12-14T15:14:37;87769.09;;;21.08;36.73
84673;BME280;74899;42.256;23.284;2023-12-14T15:17:03;87766.44;;;21.66;30.42
84673;BME280;74899;42.256;23.284;2023-12-14T15:19:29;87764.19;;;21.65;29.89
84673;BME280;74899;42.256;23.284;2023-12-14T15:21:55;87764.28;;;21.49;30.11
84673;BME280;74899;42.256;23.284;2023-12-14T15:24:21;87760.81;;;21.25;30.20
84673;BME280;74899;42.256;23.284;2023-12-14T15:26:48;87771.13;;;20.95;31.41
84673;BME280;74899;42.256;23.284;2023-12-14T15:29:15;87764.34;;;20.75;32.42
84673;BME280;74899;42.256;23.284;2023-12-14T15:31:40;87775.97;;;20.58;32.27
84673;BME280;74899;42.256;23.284;2023-12-14T15:34:07;87772.69;;;20.45;32.65
84673;BME280;74899;42.256;23.284;2023-12-14T15:36:33;87774.25;;;19.99;33.34
84673;BME280;74899;42.256;23.284;2023-12-14T15:39:02;87779.38;;;19.79;33.22
84673;BME280;74899;42.256;23.284;2023-12-14T15:41:29;87779.69;;;19.62;33.52
84673;BME280;74899;42.256;23.284;2023-12-14T15:43:55;87784.91;;;19.46;33.88
84673;BME280;74899;42.256;23.284;2023-12-14T15:49:33;87779.66;;;20.92;39.06
84673;BME280;74899;42.256;23.284;2023-12-14T15:51:59;87786.94;;;22.03;36.70
84673;BME280;74899;42.256;23.284;2023-12-14T15:54:26;87787.44;;;22.89;35.21
84673;BME280;74899;42.256;23.284;2023-12-14T15:56:51;87788.19;;;23.46;34.01
84673;BME280;74899;42.256;23.284;2023-12-14T15:59:17;87792.44;;;23.95;32.83
84673;BME280;74899;42.256;23.284;2023-12-14T16:01:43;87789.44;;;24.37;31.81
84673;BME280;74899;42.256;23.284;2023-12-14T16:04:09;87782.53;;;24.70;31.65
84673;BME280;74899;42.256;23.284;2023-12-14T16:06:35;87798.91;;;25.01;31.55
84673;BME280;74899;42.256;23.284;2023-12-14T16:09:07;87809.25;;;25.27;30.55
84673;BME280;74899;42.256;23.284;2023-12-14T16:11:33;87809.75;;;25.51;30.11
84673;BME280;74899;42.256;23.284;2023-12-14T16:13:59;87806.03;;;25.70;30.15
84673;BME280;74899;42.256;23.284;2023-12-14T16:16:24;87805.00;;;25.92;29.68
84673;BME280;74899;42.256;23.284;2023-12-14T16:18:50;87799.00;;;26.10;28.88
84673;BME280;74899;42.256;23.284;2023-12-14T16:21:16;87801.66;;;26.24;28.89
84673;BME280;74899;42.256;23.284;2023-12-14T16:23:42;87811.13;;;26.36;28.52
84673;BME280;74899;42.256;23.284;2023-12-14T16:26:11;87816.38;;;26.46;27.94
84673;BME280;74899;42.256;23.284;2023-12-14T16:28:37;87804.34;;;26.56;28.11
84673;BME280;74899;42.256;23.284;2023-12-14T16:31:06;87804.75;;;26.62;27.74
84673;BME280;74899;42.256;23.284;2023-12-14T16:33:41;87814.16;;;26.66;27.64
